Time;durP1;ratioP1;P1;durP2;ratioP2;P2;SDS_P1;SDS_P2;PMS_P1;PMS_P2;Temp;Humidity;BMP_temperature;BMP_pressure;BME280_temperature;BME280_humidity;BME280_pressure;Samples;Min_cycle;Max_cycle;Signal;HPM_P1;HPM_P2
2021/05/14 00:00:08;;;;;;;81.32;60.15;;;;;;;-150.07;48.29;56242.44;4992868;28;20034;-81
2021/05/14 00:02:36;;;;;;;82.95;61.80;;;;;;;-150.07;48.10;56284.22;4994036;28;20024;-81
2021/05/14 00:05:04;;;;;;;82.32;62.97;;;;;;;-150.07;47.30;56221.53;4994053;28;20073;-82
2021/05/14 00:07:30;;;;;;;81.38;59.60;;;;;;;-150.07;47.44;56305.13;4994211;28;20033;-80
2021/05/14 00:09:57;;;;;;;85.50;62.33;;;;;;;-150.07;47.07;56271.69;4993960;28;20026;-82
2021/05/14 00:12:24;;;;;;;76.45;55.63;;;;;;;-150.07;46.58;56330.19;4994156;28;20476;-82
2021/05/14 00:14:51;;;;;;;83.15;61.28;;;;;;;-150.07;45.44;56309.28;4979913;28;20105;-81
2021/05/14 00:17:18;;;;;;;82.30;62.55;;;;;;;-150.07;46.00;56309.28;4993825;28;20128;-82
2021/05/14 00:19:45;;;;;;;78.25;58.50;;;;;;;-150.07;45.11;56271.69;4993878;28;20022;-82
2021/05/14 00:22:11;;;;;;;79.97;57.55;;;;;;;-150.07;45.23;56267.50;4993984;28;20581;-82
2021/05/14 00:24:38;;;;;;;71.15;55.92;;;;;;;-150.07;45.86;56472.31;4993923;28;20034;-82
2021/05/14 00:27:06;;;;;;;80.75;55.58;;;;;;;-150.07;45.89;56221.53;4993863;28;20026;-82
2021/05/14 00:29:33;;;;;;;72.13;56.08;;;;;;;-150.07;45.46;56234.06;4993716;28;20064;-82
2021/05/14 00:32:00;;;;;;;79.63;55.40;;;;;;;-150.07;45.08;56273.78;4976279;28;20037;-82
2021/05/14 00:34:26;;;;;;;78.28;55.92;;;;;;;-150.07;45.36;56294.66;4993783;28;20506;-81
2021/05/14 00:36:53;;;;;;;83.78;58.63;;;;;;;-150.07;44.75;56300.94;4994062;28;20034;-82
2021/05/14 00:39:20;;;;;;;74.60;54.60;;;;;;;-150.07;44.71;56273.78;4993754;28;20543;-82
2021/05/14 00:41:47;;;;;;;75.68;56.70;;;;;;;-150.07;44.06;56252.88;4993756;28;20061;-81
2021/05/14 00:44:31;;;;;;;77.25;54.50;;;;;;;-150.07;44.63;56267.50;4994579;28;20076;-82
2021/05/14 00:47:04;;;;;;;80.63;56.47;;;;;;;-150.07;45.07;56227.78;4996617;28;20033;-82
2021/05/14 00:49:31;;;;;;;71.70;53.03;;;;;;;-150.07;44.16;56261.22;4992624;28;20085;-83
2021/05/14 00:51:59;;;;;;;62.80;47.28;;;;;;;-150.07;43.83;56229.88;4994000;28;20046;-82
2021/05/14 00:54:28;;;;;;;64.47;48.45;;;;;;;-150.07;44.60;56273.78;4993724;28;20014;-82
2021/05/14 00:56:55;;;;;;;58.33;43.30;;;;;;;-150.07;44.04;56221.53;4993409;28;20484;-82
2021/05/14 00:59:22;;;;;;;49.90;34.88;;;;;;;-150.07;44.22;56280.03;4992929;28;20484;-82
2021/05/14 01:01:49;;;;;;;46.83;35.53;;;;;;;-150.07;44.14;56263.31;4993301;28;20073;-82
2021/05/14 01:04:16;;;;;;;49.60;35.20;;;;;;;-150.07;44.33;56236.16;4992895;28;20038;-82
2021/05/14 01:06:43;;;;;;;45.08;33.05;;;;;;;-150.07;44.77;56269.59;4993816;28;20022;-82
2021/05/14 01:09:10;;;;;;;52.40;32.80;;;;;;;-150.07;44.98;56263.31;4993469;28;20034;-81
2021/05/14 01:11:37;;;;;;;59.70;34.88;;;;;;;-150.07;45.16;56248.69;4993569;28;20081;-81
2021/05/14 01:14:04;;;;;;;45.80;30.00;;;;;;;-150.07;44.45;56250.78;4992886;28;20033;-82
2021/05/14 01:16:31;;;;;;;41.40;28.65;;;;;;;-150.07;44.69;56204.81;4993081;28;20030;-81
2021/05/14 01:18:58;;;;;;;47.55;30.02;;;;;;;-150.07;44.67;56397.06;4993055;28;20038;-82
2021/05/14 01:21:25;;;;;;;34.95;25.20;;;;;;;-150.07;44.15;56367.81;4993087;28;20026;-81
2021/05/14 01:23:52;;;;;;;53.50;26.52;;;;;;;-150.07;44.54;56250.78;4993178;28;20022;-81
2021/05/14 01:26:21;;;;;;;37.28;26.63;;;;;;;-150.07;44.53;56221.53;4993105;28;20030;-82
2021/05/14 01:28:48;;;;;;;32.93;25.27;;;;;;;-150.07;44.54;56221.53;4992955;28;20435;-83
2021/05/14 01:31:16;;;;;;;35.47;22.15;;;;;;;-150.07;44.06;56246.59;4992749;28;20022;-82
2021/05/14 01:33:44;;;;;;;58.72;38.67;;;;;;;-150.07;44.13;56175.56;4976209;28;20447;-82
2021/05/14 01:36:10;;;;;;;77.28;56.95;;;;;;;-150.07;44.71;56229.88;4993627;28;20026;-82
2021/05/14 01:38:37;;;;;;;80.72;63.28;;;;;;;-150.07;44.87;56242.44;4993119;28;20039;-82
2021/05/14 01:41:05;;;;;;;73.07;59.38;;;;;;;-150.07;45.05;56175.56;4993119;28;20054;-82
2021/05/14 01:43:32;;;;;;;74.15;60.58;;;;;;;-150.07;45.05;56242.44;4992627;28;20069;-82
2021/05/14 01:45:59;;;;;;;81.95;57.70;;;;;;;-150.07;44.91;56246.59;4992740;28;20058;-82
2021/05/14 01:48:26;;;;;;;81.18;63.33;;;;;;;-150.07;46.07;56254.97;4996898;28;20033;-82
2021/05/14 01:50:53;;;;;;;84.97;58.92;;;;;;;-150.07;46.28;56413.78;4998039;28;20134;-83
2021/05/14 01:53:19;;;;;;;71.70;54.78;;;;;;;-150.07;46.97;56259.16;4996987;28;20037;-83
2021/05/14 01:55:46;;;;;;;69.05;51.85;;;;;;;-150.07;46.32;56261.22;4977671;28;20034;-82
2021/05/14 01:58:14;;;;;;;85.22;60.95;;;;;;;-150.07;46.07;56415.88;4990616;28;20029;-81
2021/05/14 02:00:41;;;;;;;81.07;61.38;;;;;;;-150.07;45.29;56242.44;4996889;28;20041;-82
2021/05/14 02:03:07;;;;;;;88.95;63.55;;;;;;;-150.07;44.94;56259.16;4994379;28;20030;-82
2021/05/14 02:05:34;;;;;;;82.88;61.95;;;;;;;-150.07;45.16;56221.53;4991970;28;20049;-82
2021/05/14 02:08:01;;;;;;;87.72;62.22;;;;;;;-150.07;44.14;56196.44;4992052;28;20113;-82
2021/05/14 02:10:28;;;;;;;78.75;58.58;;;;;;;-150.07;44.67;56271.69;4991750;28;20038;-80
2021/05/14 02:12:55;;;;;;;84.70;59.83;;;;;;;-150.07;45.56;56269.59;4991793;28;20436;-82
2021/05/14 02:15:22;;;;;;;89.43;61.13;;;;;;;-150.07;44.57;56397.06;4991769;28;20105;-82
2021/05/14 02:17:48;;;;;;;85.80;64.57;;;;;;;-150.07;44.52;56374.09;4991702;28;20029;-82
2021/05/14 02:20:15;;;;;;;85.60;64.45;;;;;;;-150.07;45.55;56213.16;4992318;28;20026;-82
2021/05/14 02:22:42;;;;;;;88.03;64.43;;;;;;;-150.07;45.91;56221.53;4992140;28;20018;-82
2021/05/14 02:25:09;;;;;;;90.85;66.90;;;;;;;-150.07;45.70;56204.81;4991511;28;20089;-82
2021/05/14 02:27:36;;;;;;;84.60;63.53;;;;;;;-150.07;45.84;56311.38;4991717;28;20026;-82
2021/05/14 02:30:06;;;;;;;91.68;64.43;;;;;;;-150.07;46.02;56242.44;4991876;28;20025;-83
2021/05/14 02:32:33;;;;;;;90.10;69.45;;;;;;;-150.07;44.92;56236.16;4991721;28;20026;-84
2021/05/14 02:35:00;;;;;;;89.97;66.22;;;;;;;-150.07;45.20;56160.94;4973893;28;20052;-82
2021/05/14 02:37:27;;;;;;;92.78;68.97;;;;;;;-150.07;44.71;56221.53;4991725;28;20534;-82
2021/05/14 02:39:54;;;;;;;83.72;65.82;;;;;;;-150.07;43.87;56234.06;4991582;28;20027;-81
2021/05/14 02:42:20;;;;;;;91.00;64.05;;;;;;;-150.07;43.14;56204.81;4991370;28;20018;-82
2021/05/14 02:44:48;;;;;;;80.10;68.65;;;;;;;-150.07;41.67;56202.72;4991096;28;20038;-84
2021/05/14 02:47:15;;;;;;;88.55;69.45;;;;;;;-150.07;43.05;56215.25;4973841;28;20420;-82
2021/05/14 02:49:42;;;;;;;92.63;70.20;;;;;;;-150.07;43.01;56225.72;4977961;28;20110;-82
2021/05/14 02:52:09;;;;;;;87.82;67.47;;;;;;;-150.07;43.12;56209.00;4991484;28;20504;-82
2021/05/14 02:54:37;;;;;;;89.05;68.07;;;;;;;-150.07;43.26;56167.19;4973972;28;20034;-81
2021/05/14 02:57:05;;;;;;;90.70;69.35;;;;;;;-150.07;43.08;56246.59;4991186;28;20538;-81
2021/05/14 02:59:32;;;;;;;97.53;73.18;;;;;;;-150.07;43.26;56196.44;4991096;28;20057;-81
2021/05/14 03:01:59;;;;;;;87.10;70.13;;;;;;;-150.07;42.58;56221.53;4990984;28;20023;-82
2021/05/14 03:04:26;;;;;;;72.57;57.72;;;;;;;-150.07;42.28;56198.53;4990747;28;20093;-82
2021/05/14 03:06:53;;;;;;;72.43;59.25;;;;;;;-150.07;42.36;56202.72;4992171;28;20035;-81
2021/05/14 03:09:20;;;;;;;68.70;50.30;;;;;;;-150.07;42.90;56330.19;4993277;28;20022;-82
2021/05/14 03:11:47;;;;;;;60.88;46.63;;;;;;;-150.07;42.45;56190.19;4990629;28;20054;-83
2021/05/14 03:14:14;;;;;;;62.42;47.42;;;;;;;-150.07;42.27;56179.72;4990648;28;20022;-84
2021/05/14 03:16:41;;;;;;;66.53;49.30;;;;;;;-150.07;42.10;56142.13;4977324;28;20095;-82
2021/05/14 03:19:07;;;;;;;58.22;43.40;;;;;;;-150.07;42.74;56175.56;4990771;28;20034;-82
2021/05/14 03:21:34;;;;;;;62.67;45.67;;;;;;;-150.07;42.00;56167.19;4990845;28;20050;-82
2021/05/14 03:24:01;;;;;;;55.88;41.28;;;;;;;-150.07;41.55;56188.09;4990968;28;20134;-81
2021/05/14 03:26:28;;;;;;;47.58;36.30;;;;;;;-150.07;40.87;56146.28;4990861;28;20030;-81
2021/05/14 03:28:55;;;;;;;54.65;39.72;;;;;;;-150.07;40.73;56167.19;4990770;28;20093;-82
2021/05/14 03:31:22;;;;;;;62.30;45.40;;;;;;;-150.07;40.96;56183.91;4987411;28;20030;-82
2021/05/14 03:33:49;;;;;;;68.70;54.90;;;;;;;-150.07;41.32;56179.72;4990568;28;20023;-82
2021/05/14 03:36:22;;;;;;;107.25;77.07;;;;;;;-150.07;42.44;56175.56;4979149;28;20518;-82
2021/05/14 03:38:51;;;;;;;92.13;69.80;;;;;;;-150.07;42.53;56181.81;4990615;28;20426;-82
2021/05/14 03:41:31;;;;;;;86.40;70.25;;;;;;;-150.07;42.66;56194.38;4990695;28;20018;-82
2021/05/14 03:43:58;;;;;;;;;;;;;;;-150.07;42.60;56200.63;4991215;28;20054;-82
2021/05/14 03:46:27;;;;;;;90.15;70.22;;;;;;;-150.07;42.90;56229.88;4990416;28;19918;-82
2021/05/14 03:48:54;;;;;;;;;;;;;;;-150.07;42.22;56183.91;4990957;28;20038;-82
2021/05/14 03:51:21;;;;;;;75.00;58.47;;;;;;;-150.07;41.89;56204.81;4990518;28;19913;-82
2021/05/14 03:53:47;;;;;;;80.68;57.83;;;;;;;-150.07;41.74;56106.59;4990526;28;20451;-83
2021/05/14 03:56:14;;;;;;;71.63;55.42;;;;;;;-150.07;41.47;56183.91;4990470;28;20034;-80
2021/05/14 03:58:41;;;;;;;77.50;55.95;;;;;;;-150.07;40.67;56177.63;4972986;28;20023;-82
2021/05/14 04:01:08;;;;;;;85.03;62.13;;;;;;;-150.07;41.78;56183.91;4990760;28;20109;-82
2021/05/14 04:03:35;;;;;;;79.00;62.70;;;;;;;-150.07;42.32;56372.00;4989491;28;20077;-83
2021/05/14 04:06:02;;;;;;;87.05;59.90;;;;;;;-150.07;42.61;56204.81;4990215;28;20046;-82
2021/05/14 04:08:29;;;;;;;79.20;57.63;;;;;;;-150.07;43.04;56198.53;4990886;28;20414;-82
2021/05/14 04:16:25;;;;;;;81.05;57.42;;;;;;;-150.07;43.99;56183.91;4990653;28;20049;-82
2021/05/14 04:18:52;;;;;;;80.57;54.53;;;;;;;-150.07;43.45;56188.09;4990201;28;20086;-82
2021/05/14 04:21:19;;;;;;;69.45;49.30;;;;;;;-150.07;43.26;56181.81;4990472;28;20018;-82
2021/05/14 04:23:46;;;;;;;65.68;45.38;;;;;;;-150.07;43.31;56240.34;4990151;28;20053;-81
2021/05/14 04:26:13;;;;;;;57.17;43.10;;;;;;;-150.07;43.73;56200.63;4992153;28;20085;-82
2021/05/14 04:28:40;;;;;;;40.88;32.55;;;;;;;-150.07;44.16;56175.56;4976485;28;20373;-83
2021/05/14 04:31:07;;;;;;;47.97;34.33;;;;;;;-150.07;44.12;56177.63;4993816;28;20780;-82
2021/05/14 04:33:34;;;;;;;57.50;38.22;;;;;;;-150.07;43.66;56175.56;4980106;28;20021;-82
2021/05/14 04:36:03;;;;;;;54.92;36.78;;;;;;;-150.07;43.91;56198.53;4976047;28;20049;-82
2021/05/14 04:38:29;;;;;;;52.60;36.33;;;;;;;-150.07;44.11;56171.38;4994144;28;20113;-81
2021/05/14 04:40:56;;;;;;;50.25;34.00;;;;;;;-150.07;43.20;56196.44;4993487;28;20030;-81
2021/05/14 04:43:23;;;;;;;53.60;34.22;;;;;;;-150.07;43.32;56144.22;4993344;28;20654;-82
2021/05/14 04:45:50;;;;;;;47.08;31.55;;;;;;;-150.07;43.29;56160.94;4993313;28;20038;-81
2021/05/14 04:48:17;;;;;;;40.10;28.30;;;;;;;-150.07;43.95;56198.53;4975638;28;20038;-82
2021/05/14 04:50:44;;;;;;;41.35;31.85;;;;;;;-150.07;43.37;56234.06;4993212;28;20026;-81
2021/05/14 04:53:13;;;;;;;40.95;29.35;;;;;;;-150.07;43.37;56152.56;4993257;28;20026;-81
2021/05/14 04:55:40;;;;;;;53.67;31.35;;;;;;;-150.07;42.80;56158.84;4993334;28;20022;-82
2021/05/14 04:58:07;;;;;;;37.63;28.58;;;;;;;-150.07;42.38;56204.81;4993287;28;20484;-82
2021/05/14 05:00:34;;;;;;;45.85;32.85;;;;;;;-150.07;42.08;56192.28;4993055;28;20472;-82
2021/05/14 05:03:01;;;;;;;42.80;32.22;;;;;;;-150.07;42.08;56150.47;4993088;28;20037;-82
2021/05/14 05:05:30;;;;;;;44.20;30.23;;;;;;;-150.07;41.96;56142.13;4992462;28;20121;-82
2021/05/14 05:07:57;;;;;;;41.75;27.05;;;;;;;-150.07;41.86;56096.13;4991783;28;20126;-82
2021/05/14 05:10:24;;;;;;;37.92;27.67;;;;;;;-150.07;41.49;56142.13;4991478;28;20464;-83
2021/05/14 05:12:51;;;;;;;35.42;25.13;;;;;;;-150.07;42.13;56150.47;4992933;28;20038;-82
2021/05/14 05:15:18;;;;;;;38.08;26.40;;;;;;;-150.07;40.66;56127.50;4992949;28;20506;-82
2021/05/14 05:17:45;;;;;;;38.20;28.02;;;;;;;-150.07;40.55;56144.22;4992618;28;20638;-82
2021/05/14 05:20:12;;;;;;;45.08;31.30;;;;;;;-150.07;39.82;56163.00;4992635;28;20044;-82
2021/05/14 05:22:39;;;;;;;42.83;29.80;;;;;;;-150.07;39.86;56123.31;4991334;28;20033;-81
2021/05/14 05:25:06;;;;;;;47.92;30.13;;;;;;;-150.07;39.84;56158.84;4992540;28;20035;-82
2021/05/14 05:27:33;;;;;;;39.30;24.83;;;;;;;-150.07;40.42;56091.97;4992702;28;20029;-82
2021/05/14 05:30:03;;;;;;;48.75;27.85;;;;;;;-150.07;41.08;56173.47;4992392;28;20025;-81
2021/05/14 05:32:30;;;;;;;36.08;29.00;;;;;;;-150.07;41.37;56110.78;4976200;28;20731;-82
2021/05/14 05:34:57;;;;;;;51.20;36.42;;;;;;;-150.07;41.67;56183.91;4992664;28;20479;-81
2021/05/14 05:37:24;;;;;;;44.00;35.45;;;;;;;-150.07;42.12;56179.72;4974892;28;20030;-81
2021/05/14 05:39:51;;;;;;;54.50;34.90;;;;;;;-150.07;41.87;56154.66;4992091;28;20034;-82
2021/05/14 05:42:18;;;;;;;52.15;34.10;;;;;;;-150.07;42.51;56148.38;4992740;28;20022;-82
2021/05/14 05:44:45;;;;;;;40.38;29.92;;;;;;;-150.07;42.58;56177.63;4990974;28;20042;-82
2021/05/14 05:47:12;;;;;;;49.42;33.83;;;;;;;-150.07;42.61;56330.19;4990494;28;20038;-82
2021/05/14 05:49:38;;;;;;;51.67;33.10;;;;;;;-150.07;43.10;56190.19;4992314;28;20462;-82
2021/05/14 05:52:06;;;;;;;40.25;30.75;;;;;;;-150.07;43.40;56179.72;4992075;28;20030;-83
2021/05/14 05:54:32;;;;;;;45.05;32.65;;;;;;;-150.07;43.91;56221.53;4977564;28;20053;-81
2021/05/14 05:57:00;;;;;;;42.85;30.00;;;;;;;-150.07;44.11;56190.19;4992250;28;20108;-81
2021/05/14 05:59:28;;;;;;;41.67;31.48;;;;;;;-150.07;43.83;56183.91;4991892;28;20125;-82
2021/05/14 06:01:55;;;;;;;46.78;30.77;;;;;;;-150.07;44.08;56179.72;4992283;28;20026;-81
2021/05/14 06:04:21;;;;;;;49.13;31.88;;;;;;;-150.07;44.13;56156.75;4991731;28;20130;-82
2021/05/14 06:06:48;;;;;;;43.90;30.55;;;;;;;-150.07;44.20;56198.53;4992167;28;20053;-82
2021/05/14 06:09:15;;;;;;;43.33;34.72;;;;;;;-150.07;43.61;56154.66;4992026;28;20031;-83
2021/05/14 06:11:42;;;;;;;60.28;36.72;;;;;;;-150.07;43.89;56173.47;4991928;28;20022;-83
2021/05/14 06:14:09;;;;;;;48.75;33.08;;;;;;;-150.07;44.09;56179.72;4974320;28;20123;-82
2021/05/14 06:16:36;;;;;;;37.00;31.63;;;;;;;-150.07;44.21;56173.47;4991512;28;20031;-81
2021/05/14 06:19:10;;;;;;;52.17;31.88;;;;;;;-150.07;44.47;56163.00;4974240;28;20041;-81
2021/05/14 06:21:44;;;;;;;47.50;34.83;;;;;;;-150.07;44.45;56163.00;4991709;28;20556;-81
2021/05/14 06:24:11;;;;;;;47.08;35.00;;;;;;;-150.07;44.49;56171.38;4991743;28;20034;-82
2021/05/14 06:26:38;;;;;;;51.00;36.00;;;;;;;-150.07;44.35;56167.19;4991729;28;20037;-82
2021/05/14 06:29:05;;;;;;;49.38;35.47;;;;;;;-150.07;45.07;56202.72;4991585;28;20077;-81
2021/05/14 06:31:32;;;;;;;47.03;37.80;;;;;;;-150.07;45.22;56221.53;4991928;28;20030;-81
2021/05/14 06:33:59;;;;;;;40.60;31.75;;;;;;;-150.07;45.35;56163.00;4991526;28;20494;-82
2021/05/14 06:36:26;;;;;;;46.80;29.60;;;;;;;-150.07;44.88;56135.84;4991412;28;20068;-82
2021/05/14 06:38:53;;;;;;;42.45;32.10;;;;;;;-150.07;44.52;56200.63;4992042;28;20173;-81
2021/05/14 06:41:20;;;;;;;40.83;33.58;;;;;;;-150.07;45.04;56211.06;4991495;28;20486;-82
2021/05/14 06:43:47;;;;;;;45.58;34.17;;;;;;;-150.07;44.52;56221.53;4991753;28;20034;-82
2021/05/14 06:46:14;;;;;;;39.63;31.33;;;;;;;-150.07;44.20;56344.81;4973916;28;20038;-82
2021/05/14 06:48:46;;;;;;;52.33;37.72;;;;;;;-150.07;44.60;56313.47;4991822;28;20093;-82
2021/05/14 06:51:13;;;;;;;54.63;36.70;;;;;;;-150.07;45.05;56158.84;4992075;28;20022;-81
2021/05/14 06:53:40;;;;;;;45.88;29.95;;;;;;;-150.07;44.85;56192.28;4983888;28;20057;-82
2021/05/14 06:56:07;;;;;;;38.72;27.90;;;;;;;-150.07;43.97;56160.94;4991175;28;20025;-82
2021/05/14 06:58:34;;;;;;;37.08;26.05;;;;;;;-150.07;43.87;56160.94;4991160;28;20069;-82
2021/05/14 07:01:01;;;;;;;43.65;31.88;;;;;;;-150.07;44.01;56192.28;4991392;28;20539;-81
2021/05/14 07:03:28;;;;;;;48.33;30.45;;;;;;;-150.07;44.45;56137.94;4990929;28;20018;-82
2021/05/14 07:05:55;;;;;;;43.50;28.73;;;;;;;-150.07;45.23;56382.44;4990898;28;20097;-82
2021/05/14 07:08:22;;;;;;;41.90;27.83;;;;;;;-150.07;45.70;56181.81;4991110;28;20053;-82
2021/05/14 07:10:50;;;;;;;31.52;25.88;;;;;;;-150.07;45.89;56213.16;4990685;28;20027;-82
2021/05/14 07:13:17;;;;;;;38.60;27.20;;;;;;;-150.07;46.81;56221.53;4991243;28;20125;-81
2021/05/14 07:15:44;;;;;;;32.55;25.52;;;;;;;-150.07;46.65;56217.34;4990913;28;20026;-80
2021/05/14 07:18:10;;;;;;;42.45;28.23;;;;;;;-150.07;46.63;56209.00;4991186;28;20081;-77
2021/05/14 07:20:37;;;;;;;42.90;28.48;;;;;;;-150.07;47.24;56221.53;4988403;28;20029;-80
2021/05/14 07:23:04;;;;;;;32.97;25.88;;;;;;;-150.07;47.27;56179.72;4989635;28;20027;-80
2021/05/14 07:25:31;;;;;;;34.03;25.52;;;;;;;-150.07;47.29;56221.53;4989390;28;20101;-79
2021/05/14 07:27:58;;;;;;;40.08;28.08;;;;;;;-150.07;47.57;56378.25;4989661;28;20034;-79
2021/05/14 07:30:25;;;;;;;43.83;26.80;;;;;;;-150.07;46.84;56217.34;4990255;28;20034;-78
2021/05/14 07:32:52;;;;;;;39.65;24.52;;;;;;;-150.07;46.64;56244.50;4990701;28;20030;-78
2021/05/14 07:35:19;;;;;;;47.38;25.98;;;;;;;-150.07;46.35;56238.25;4988817;28;20072;-81
2021/05/14 07:37:45;;;;;;;35.00;24.42;;;;;;;-150.07;46.25;56204.81;4990321;28;20201;-80
2021/05/14 07:40:13;;;;;;;37.08;24.90;;;;;;;-150.07;45.79;56181.81;4991335;28;20041;-80
2021/05/14 07:42:39;;;;;;;33.10;24.25;;;;;;;-150.07;44.95;56198.53;4989683;28;20484;-79
2021/05/14 07:45:07;;;;;;;34.63;25.30;;;;;;;-150.07;45.41;56192.28;4988457;28;20030;-79
2021/05/14 07:47:34;;;;;;;41.58;25.55;;;;;;;-150.07;46.49;56229.88;4989956;28;20088;-79
2021/05/14 07:50:02;;;;;;;40.97;26.40;;;;;;;-150.07;46.72;56209.00;4990718;28;20030;-80
2021/05/14 07:52:29;;;;;;;46.67;26.98;;;;;;;-150.07;46.05;56217.34;4989744;28;20121;-80
2021/05/14 07:54:56;;;;;;;41.03;28.63;;;;;;;-150.07;45.95;56213.16;4989971;28;20126;-81
2021/05/14 07:57:23;;;;;;;34.08;26.83;;;;;;;-150.07;46.43;56248.69;4990987;28;20038;-79
2021/05/14 07:59:50;;;;;;;38.53;27.02;;;;;;;-150.07;46.27;56209.00;4993442;28;20033;-80
2021/05/14 08:02:17;;;;;;;30.63;24.20;;;;;;;-150.07;47.39;56234.06;4993952;28;20487;-80
2021/05/14 08:04:44;;;;;;;34.58;22.80;;;;;;;-150.07;47.66;56259.16;4993014;28;20500;-80
2021/05/14 08:07:11;;;;;;;34.58;22.80;;;;;;;-150.07;47.82;56263.31;4994034;28;20030;-79
2021/05/14 08:09:38;;;;;;;34.72;24.60;;;;;;;-150.07;47.92;56267.50;4994334;28;20057;-80
2021/05/14 08:12:05;;;;;;;43.15;24.88;;;;;;;-150.07;48.26;56229.88;4993990;28;20038;-80
2021/05/14 08:14:33;;;;;;;31.55;22.70;;;;;;;-150.07;48.66;56267.50;4993196;28;20036;-80
2021/05/14 08:17:00;;;;;;;32.20;20.83;;;;;;;-150.07;49.04;56411.69;4993602;28;20099;-81
2021/05/14 08:19:26;;;;;;;24.95;20.95;;;;;;;-150.07;49.57;56213.16;4976355;28;20031;-80
2021/05/14 08:21:53;;;;;;;28.27;20.90;;;;;;;-150.07;49.79;56254.97;4989774;28;20034;-81
2021/05/14 08:24:20;;;;;;;27.75;21.15;;;;;;;-150.07;50.16;56288.41;4990279;28;20030;-77
2021/05/14 08:26:47;;;;;;;26.88;20.65;;;;;;;-150.07;50.66;56384.53;4993642;28;20030;-82
2021/05/14 08:29:14;;;;;;;29.48;19.50;;;;;;;-150.07;50.31;56257.06;4982540;28;20038;-80
2021/05/14 08:31:41;;;;;;;23.08;18.75;;;;;;;-150.07;49.74;56252.88;4993392;28;20034;-82
2021/05/14 08:34:10;;;;;;;22.33;17.52;;;;;;;-150.07;48.81;56257.06;4993864;28;20030;-80
2021/05/14 08:36:37;;;;;;;34.83;19.45;;;;;;;-150.07;48.67;56238.25;4992173;28;20026;-79
2021/05/14 08:39:04;;;;;;;29.25;20.42;;;;;;;-150.07;48.77;56229.88;4988031;28;20086;-80
2021/05/14 08:41:34;;;;;;;29.23;20.17;;;;;;;-150.07;50.55;56246.59;4992864;28;20034;-80
2021/05/14 08:44:01;;;;;;;31.63;21.27;;;;;;;-150.07;51.70;56277.94;4985527;28;20026;-78
2021/05/14 08:46:31;;;;;;;26.92;22.20;;;;;;;-150.07;51.22;56311.38;4992156;28;20038;-79
2021/05/14 08:49:00;;;;;;;39.88;23.17;;;;;;;-150.07;53.34;56317.66;4993859;28;20364;-81
2021/05/14 08:51:29;;;;;;;31.30;24.73;;;;;;;-150.07;53.13;56313.47;4992722;28;20034;-80
2021/05/14 08:54:04;;;;;;;41.10;30.38;;;;;;;-150.07;53.64;56273.78;4992992;28;20026;-80
2021/05/14 08:56:32;;;;;;;48.80;31.67;;;;;;;-150.07;54.39;56332.28;4991080;28;20027;-79
2021/05/14 08:59:00;;;;;;;45.42;34.13;;;;;;;-150.07;53.85;56369.91;4989082;28;20037;-79
2021/05/14 09:01:27;;;;;;;45.90;36.35;;;;;;;-150.07;53.87;56330.19;4991776;28;20081;-80
2021/05/14 09:04:02;;;;;;;50.95;35.45;;;;;;;-150.07;53.49;56290.50;4989375;28;20125;-80
2021/05/14 09:06:37;;;;;;;47.35;36.10;;;;;;;-150.07;53.84;56330.19;4990954;28;20026;-80
2021/05/14 09:09:12;;;;;;;49.08;34.28;;;;;;;-150.07;53.24;56288.41;4973758;28;20117;-80
2021/05/14 09:11:46;;;;;;;57.05;38.25;;;;;;;-150.07;53.49;56332.28;4974065;28;20022;-80
2021/05/14 09:14:34;;;;;;;48.33;35.03;;;;;;;-150.07;53.21;56298.84;5006523;28;20058;-79
2021/05/14 09:17:25;;;;;;;47.53;35.08;;;;;;;-150.07;53.24;56346.91;4996635;28;20045;-79
2021/05/14 09:19:52;;;;;;;44.25;34.10;;;;;;;-150.07;53.55;56288.41;4992706;28;20507;-79
2021/05/14 09:22:23;;;;;;;41.70;31.17;;;;;;;-150.07;53.80;56317.66;4992362;28;20069;-79
2021/05/14 09:25:01;;;;;;;42.00;30.90;;;;;;;-150.07;54.01;56338.56;4991008;28;20042;-79
2021/05/14 09:27:38;;;;;;;37.85;31.33;;;;;;;-150.07;54.08;56323.94;4994853;28;20026;-80
2021/05/14 09:30:09;;;;;;;45.00;30.70;;;;;;;-150.07;53.80;56294.66;4999808;28;20026;-82
2021/05/14 09:32:38;;;;;;;44.60;32.22;;;;;;;-150.07;53.77;56547.53;4995931;28;20070;-82
2021/05/14 09:35:07;;;;;;;42.90;28.58;;;;;;;-150.07;53.87;56300.94;4991424;28;20129;-82
2021/05/14 09:37:45;;;;;;;38.95;30.83;;;;;;;-150.07;53.76;56248.69;4992275;28;20023;-82
2021/05/14 09:40:22;;;;;;;47.25;32.40;;;;;;;-150.07;53.18;56296.75;4992334;28;20034;-81
2021/05/14 09:42:58;;;;;;;41.38;30.35;;;;;;;-150.07;53.27;56330.19;4991967;28;20038;-81
2021/05/14 09:45:29;;;;;;;41.10;31.67;;;;;;;-150.07;53.10;56311.38;4992210;28;20026;-82
2021/05/14 09:48:16;;;;;;;45.88;31.30;;;;;;;-150.07;53.16;56342.72;4991064;28;20450;-81
2021/05/14 09:50:44;;;;;;;46.15;30.55;;;;;;;-150.07;53.23;56330.19;4990219;28;20030;-82
2021/05/14 09:53:16;;;;;;;41.10;31.90;;;;;;;-150.07;53.12;56296.75;4991715;28;20538;-81
2021/05/14 09:55:50;;;;;;;34.20;27.58;;;;;;;-150.07;52.90;56284.22;4979405;28;20049;-82
2021/05/14 09:58:22;;;;;;;40.20;29.48;;;;;;;-150.07;52.58;56294.66;4991147;28;20567;-81
2021/05/14 10:00:49;;;;;;;39.83;31.17;;;;;;;-150.07;52.76;56259.16;4992066;28;20504;-84
2021/05/14 10:03:21;;;;;;;40.95;28.98;;;;;;;-150.07;52.70;56303.03;4972737;28;20571;-81
2021/05/14 10:05:50;;;;;;;38.60;27.88;;;;;;;-150.07;52.39;56480.66;4973272;28;20512;-82
2021/05/14 10:08:25;;;;;;;38.33;27.53;;;;;;;-150.07;51.10;56307.22;4975865;28;20113;-82
2021/05/14 10:10:53;;;;;;;33.97;27.55;;;;;;;-150.07;51.26;56263.31;4993654;28;20026;-82
2021/05/14 10:13:20;;;;;;;36.58;28.67;;;;;;;-150.07;51.36;56259.16;4994204;28;20058;-82
2021/05/14 10:15:48;;;;;;;38.38;27.65;;;;;;;-150.07;51.66;56271.69;4974651;28;20042;-81
2021/05/14 10:18:19;;;;;;;37.80;28.02;;;;;;;-150.07;51.88;56271.69;4994113;28;20038;-82
2021/05/14 10:20:51;;;;;;;35.83;26.17;;;;;;;-150.07;51.92;56535.00;4991979;28;20053;-84
2021/05/14 10:23:18;;;;;;;38.85;26.60;;;;;;;-150.07;51.60;56434.69;4974362;28;20154;-82
2021/05/14 10:25:49;;;;;;;40.70;30.05;;;;;;;-150.07;51.74;56468.13;4990919;28;20057;-81
2021/05/14 10:28:24;;;;;;;43.33;29.92;;;;;;;-150.07;51.95;56309.28;4991963;28;20038;-80
2021/05/14 10:31:05;;;;;;;33.85;27.63;;;;;;;-150.07;52.02;56317.66;4990166;28;20027;-83
2021/05/14 10:33:45;;;;;;;38.85;30.20;;;;;;;-150.07;52.19;56309.28;4991834;28;20037;-81
2021/05/14 10:36:31;;;;;;;35.15;28.52;;;;;;;-150.07;52.02;56300.94;4989568;28;20175;-81
2021/05/14 10:39:18;;;;;;;41.97;31.83;;;;;;;-150.07;52.09;56300.94;4991599;28;20026;-79
2021/05/14 10:41:55;;;;;;;39.75;31.25;;;;;;;-150.07;51.95;56300.94;4992094;28;20058;-80
2021/05/14 10:44:45;;;;;;;34.35;29.63;;;;;;;-150.07;51.52;56300.94;4975135;28;20038;-81
2021/05/14 10:47:27;;;;;;;45.13;32.33;;;;;;;-150.07;51.67;56290.50;4991909;28;20365;-81
2021/05/14 10:50:01;;;;;;;42.67;31.77;;;;;;;-150.07;51.54;56296.75;4974682;28;20563;-77
2021/05/14 10:52:30;;;;;;;38.97;33.33;;;;;;;-150.07;52.20;56317.66;4991140;28;20100;-79
2021/05/14 10:54:57;;;;;;;47.50;32.97;;;;;;;-150.07;52.28;56317.66;4990185;28;20041;-80
2021/05/14 10:57:47;;;;;;;47.22;32.60;;;;;;;-150.07;52.49;56309.28;4990692;28;20602;-81
2021/05/14 11:00:40;;;;;;;40.88;31.80;;;;;;;-150.07;52.78;56298.84;4991736;28;20076;-79
2021/05/14 11:03:18;;;;;;;40.63;31.88;;;;;;;-150.07;52.34;56315.56;4988213;28;20053;-82
2021/05/14 11:05:48;;;;;;;40.60;31.95;;;;;;;-150.07;52.46;56275.88;4989607;28;20054;-81
2021/05/14 11:08:36;;;;;;;46.60;33.15;;;;;;;-150.07;52.87;56315.56;4990922;28;20547;-81
2021/05/14 11:11:05;;;;;;;47.72;33.75;;;;;;;-150.07;53.31;56286.31;4983292;28;20057;-81
2021/05/14 11:13:37;;;;;;;51.47;35.28;;;;;;;-150.07;53.50;56326.03;4973675;28;20049;-80